Time;durP1;ratioP1;P1;durP2;ratioP2;P2;SDS_P1;SDS_P2;PMS_P1;PMS_P2;Temp;Humidity;BMP_temperature;BMP_pressure;BME280_temperature;BME280_humidity;BME280_pressure;Samples;Min_cycle;Max_cycle;Signal;HPM_P1;HPM_P2
2023/03/11 00:00:36;;;;;;;2.70;2.17;;;3.00;94.70;;;;;;5023863;28;20441;-59
2023/03/11 00:03:07;;;;;;;3.43;2.30;;;3.00;95.10;;;;;;5018398;28;20549;-59
2023/03/11 00:05:35;;;;;;;4.30;2.77;;;3.00;93.90;;;;;;5027735;28;20422;-62
2023/03/11 00:08:01;;;;;;;2.73;2.53;;;3.00;94.40;;;;;;5026692;28;20443;-59
2023/03/11 00:10:39;;;;;;;2.63;2.00;;;3.00;92.60;;;;;;5025006;28;20433;-60
2023/03/11 00:13:07;;;;;;;3.43;2.30;;;3.00;93.50;;;;;;5021843;28;20440;-59
2023/03/11 00:15:33;;;;;;;2.90;2.40;;;2.90;93.60;;;;;;5022415;28;20433;-60
2023/03/11 00:17:59;;;;;;;3.33;2.67;;;3.00;91.80;;;;;;5020608;28;21049;-59
2023/03/11 00:20:28;;;;;;;3.73;2.73;;;2.90;90.00;;;;;;5029248;28;20505;-59
2023/03/11 00:22:54;;;;;;;2.10;1.90;;;2.90;90.80;;;;;;5029327;28;20199;-59
2023/03/11 00:25:22;;;;;;;2.97;2.13;;;2.90;91.60;;;;;;5029356;28;20426;-60
2023/03/11 00:27:47;;;;;;;3.70;2.40;;;2.90;90.00;;;;;;5020719;28;21365;-58
2023/03/11 00:30:15;;;;;;;2.27;2.07;;;2.90;87.30;;;;;;5030109;28;20442;-59
2023/03/11 00:32:41;;;;;;;2.17;2.00;;;2.90;88.80;;;;;;5028355;28;20165;-59
2023/03/11 00:35:10;;;;;;;3.03;2.13;;;2.80;88.60;;;;;;5027592;28;20430;-59
2023/03/11 00:37:35;;;;;;;2.60;2.27;;;2.80;87.50;;;;;;5027270;28;20574;-59
2023/03/11 00:40:01;;;;;;;2.70;2.30;;;2.80;87.80;;;;;;5028893;28;20411;-59
2023/03/11 00:42:26;;;;;;;4.13;2.07;;;2.80;85.30;;;;;;5031349;28;20172;-59
2023/03/11 00:44:52;;;;;;;2.17;1.97;;;2.80;83.80;;;;;;5028347;28;20671;-59
2023/03/11 00:47:17;;;;;;;4.93;2.37;;;2.70;85.70;;;;;;5029760;28;20184;-58
2023/03/11 00:49:43;;;;;;;3.77;2.20;;;2.80;84.60;;;;;;5021991;28;20816;-58
2023/03/11 00:52:09;;;;;;;3.13;2.27;;;2.80;86.10;;;;;;5025068;28;20289;-58
2023/03/11 00:54:34;;;;;;;2.30;2.10;;;2.70;85.40;;;;;;5027731;28;20183;-59
2023/03/11 00:57:00;;;;;;;2.93;2.10;;;2.80;81.80;;;;;;5022525;28;20212;-60
2023/03/11 00:59:25;;;;;;;2.20;2.10;;;2.70;82.40;;;;;;5027051;28;20207;-58
2023/03/11 01:01:51;;;;;;;2.33;2.13;;;2.70;84.20;;;;;;5027371;28;20184;-60
2023/03/11 01:04:16;;;;;;;2.33;2.13;;;2.70;86.90;;;;;;5030056;28;20223;-59
2023/03/11 01:06:42;;;;;;;2.60;2.40;;;2.70;84.70;;;;;;5021470;28;20173;-58
2023/03/11 01:09:08;;;;;;;2.60;2.40;;;2.60;85.30;;;;;;5024815;28;20668;-59
2023/03/11 01:11:33;;;;;;;2.63;2.43;;;2.60;81.90;;;;;;5028420;28;20176;-60
2023/03/11 01:13:59;;;;;;;3.67;1.80;;;2.60;81.80;;;;;;5030209;28;20208;-59
2023/03/11 01:16:24;;;;;;;3.37;2.40;;;2.60;80.00;;;;;;5014031;28;20177;-59
2023/03/11 01:18:50;;;;;;;2.63;2.37;;;2.60;80.10;;;;;;5025829;28;20253;-59
2023/03/11 01:21:16;;;;;;;2.57;2.37;;;2.50;81.90;;;;;;5018608;28;20184;-60
2023/03/11 01:23:41;;;;;;;2.30;2.10;;;2.50;83.30;;;;;;5020016;28;20205;-58
2023/03/11 01:26:08;;;;;;;2.50;2.17;;;2.50;83.10;;;;;;5024166;28;20254;-58
2023/03/11 01:28:33;;;;;;;2.40;2.20;;;2.50;81.90;;;;;;5029069;28;20219;-59
2023/03/11 01:30:59;;;;;;;2.73;2.40;;;2.50;80.10;;;;;;5039242;28;20467;-58
2023/03/11 01:33:25;;;;;;;2.60;2.40;;;2.50;81.60;;;;;;5025191;28;20184;-59
2023/03/11 01:35:51;;;;;;;2.00;1.90;;;2.50;81.30;;;;;;5028326;28;20484;-59
2023/03/11 01:38:17;;;;;;;2.97;2.23;;;2.50;80.40;;;;;;5015223;28;20203;-58
2023/03/11 01:40:46;;;;;;;2.13;2.00;;;2.50;82.20;;;;;;5025620;28;20476;-59
2023/03/11 01:43:39;;;;;;;2.30;1.67;;;2.40;83.10;;;;;;5029421;28;20207;-59
2023/03/11 01:46:22;;;;;;;3.60;2.50;;;2.50;84.50;;;;;;5028738;28;20418;-60
2023/03/11 01:48:57;;;;;;;2.50;2.07;;;2.50;84.10;;;;;;5022981;28;20914;-59
2023/03/11 01:51:30;;;;;;;3.90;2.07;;;2.40;82.00;;;;;;5025020;28;20434;-59
2023/03/11 01:53:58;;;;;;;5.07;2.40;;;2.40;79.90;;;;;;5026987;28;20406;-59
2023/03/11 01:56:24;;;;;;;3.13;2.27;;;2.40;78.70;;;;;;5026093;28;20437;-59
2023/03/11 01:58:52;;;;;;;2.10;1.90;;;2.40;78.80;;;;;;5024294;28;20996;-60
2023/03/11 02:01:19;;;;;;;2.40;2.20;;;2.30;79.20;;;;;;5022523;28;20422;-59
2023/03/11 02:03:45;;;;;;;2.17;1.97;;;2.30;79.40;;;;;;5021212;28;20463;-59
2023/03/11 02:06:14;;;;;;;2.60;2.10;;;2.30;81.70;;;;;;5024827;28;20966;-59
2023/03/11 02:08:42;;;;;;;2.43;2.00;;;2.30;83.60;;;;;;5025738;28;20188;-60
2023/03/11 02:11:11;;;;;;;2.77;2.50;;;2.30;83.70;;;;;;5025185;28;20434;-60
2023/03/11 02:13:39;;;;;;;2.63;2.40;;;2.40;84.20;;;;;;5030037;28;20424;-59
2023/03/11 02:16:05;;;;;;;3.47;2.50;;;2.40;84.20;;;;;;5022455;28;20615;-59
2023/03/11 02:18:31;;;;;;;2.43;2.10;;;2.40;85.50;;;;;;5025197;28;20524;-59
2023/03/11 02:21:27;;;;;;;2.40;2.10;;;2.40;85.30;;;;;;5022947;28;20517;-59
2023/03/11 02:24:15;;;;;;;3.27;2.70;;;2.40;83.80;;;;;;5026517;28;20247;-58
2023/03/11 02:26:53;;;;;;;2.80;2.57;;;2.40;84.60;;;;;;5025818;28;20471;-59
2023/03/11 02:29:21;;;;;;;4.73;2.30;;;2.30;81.70;;;;;;5026466;28;20555;-59
2023/03/11 02:31:48;;;;;;;2.73;2.50;;;2.30;83.40;;;;;;5025710;28;20430;-60
2023/03/11 02:34:27;;;;;;;2.60;2.40;;;2.30;84.60;;;;;;5025035;28;20422;-60
2023/03/11 02:36:53;;;;;;;4.80;2.90;;;2.30;82.00;;;;;;5017908;28;21881;-60
2023/03/11 02:39:34;;;;;;;5.53;2.70;;;2.20;83.60;;;;;;5028970;28;20441;-61
2023/03/11 02:42:09;;;;;;;5.33;2.77;;;2.20;84.40;;;;;;5023733;28;20457;-59
2023/03/11 02:44:35;;;;;;;4.33;2.60;;;2.10;85.70;;;;;;5031678;28;20449;-59
2023/03/11 02:47:01;;;;;;;2.30;2.10;;;2.10;87.00;;;;;;5030606;28;20407;-60
2023/03/11 02:49:26;;;;;;;3.53;3.17;;;2.20;89.20;;;;;;5023512;28;20197;-58
2023/03/11 02:51:52;;;;;;;3.10;2.73;;;2.20;90.00;;;;;;5027530;28;20455;-59
2023/03/11 02:54:17;;;;;;;2.40;2.20;;;2.20;90.10;;;;;;5032105;28;20183;-59
2023/03/11 02:56:43;;;;;;;2.60;2.40;;;2.20;90.90;;;;;;5032199;28;20563;-59
2023/03/11 02:59:09;;;;;;;3.40;2.90;;;2.20;92.00;;;;;;5021936;28;20210;-60
2023/03/11 03:01:35;;;;;;;5.03;3.10;;;2.20;93.70;;;;;;5029280;28;20184;-59
2023/03/11 03:04:00;;;;;;;3.23;2.80;;;2.30;94.50;;;;;;5032269;28;20192;-60
2023/03/11 03:06:27;;;;;;;3.33;3.03;;;2.20;95.20;;;;;;5023982;28;20474;-59
2023/03/11 03:08:53;;;;;;;5.13;3.10;;;2.20;95.50;;;;;;5027309;28;20298;-59
2023/03/11 03:11:19;;;;;;;3.43;2.80;;;2.20;95.90;;;;;;5030098;28;20497;-59
2023/03/11 03:13:45;;;;;;;4.23;3.10;;;2.20;94.60;;;;;;5030391;28;21045;-59
2023/03/11 03:16:10;;;;;;;2.70;2.50;;;2.10;94.20;;;;;;5027142;28;20525;-60
2023/03/11 03:18:37;;;;;;;3.13;2.50;;;2.10;94.10;;;;;;5031598;28;20545;-59
2023/03/11 03:21:03;;;;;;;7.60;2.87;;;2.10;93.30;;;;;;5030271;28;20183;-60
2023/03/11 03:23:28;;;;;;;3.30;2.53;;;2.10;93.40;;;;;;5018515;28;20992;-59
2023/03/11 03:25:54;;;;;;;5.40;2.63;;;2.00;93.70;;;;;;5031173;28;20406;-59
2023/03/11 03:28:19;;;;;;;2.50;2.30;;;2.00;93.30;;;;;;5029635;28;20200;-61
2023/03/11 03:30:45;;;;;;;3.13;2.77;;;2.00;93.30;;;;;;5029908;28;20318;-59
2023/03/11 03:33:11;;;;;;;3.30;2.37;;;2.00;91.10;;;;;;5029873;28;20211;-61
2023/03/11 03:35:40;;;;;;;2.53;2.33;;;1.90;91.10;;;;;;5030371;28;20182;-60
2023/03/11 03:38:06;;;;;;;5.13;2.73;;;1.90;89.10;;;;;;5018370;28;20192;-60
2023/03/11 03:40:32;;;;;;;3.43;2.40;;;1.80;89.50;;;;;;5025710;28;20437;-59
2023/03/11 03:42:58;;;;;;;4.63;2.77;;;1.80;90.50;;;;;;5023347;28;20184;-61
2023/03/11 03:45:23;;;;;;;2.50;2.30;;;1.80;91.30;;;;;;5027830;28;20533;-59
2023/03/11 03:47:49;;;;;;;3.43;2.50;;;1.70;91.00;;;;;;5026119;28;20191;-59
2023/03/11 03:50:15;;;;;;;4.27;2.60;;;1.70;91.30;;;;;;5026392;28;20202;-59
2023/03/11 03:52:40;;;;;;;3.13;2.77;;;1.70;91.20;;;;;;5026391;28;20230;-59
2023/03/11 03:55:06;;;;;;;4.37;2.50;;;1.70;91.50;;;;;;5027689;28;20214;-60
2023/03/11 03:57:32;;;;;;;2.73;2.50;;;1.70;91.80;;;;;;5022957;28;20207;-60
2023/03/11 03:59:57;;;;;;;2.70;2.50;;;1.60;92.50;;;;;;5026703;28;20998;-59
2023/03/11 04:02:23;;;;;;;5.00;2.90;;;1.60;93.20;;;;;;5025093;28;20179;-60
2023/03/11 04:04:49;;;;;;;2.80;2.50;;;1.60;92.80;;;;;;5026692;28;20291;-59
2023/03/11 04:07:15;;;;;;;2.83;2.53;;;1.60;93.20;;;;;;5023786;28;20180;-59
2023/03/11 04:09:42;;;;;;;5.93;2.80;;;1.60;91.20;;;;;;5030585;28;20476;-60
2023/03/11 04:12:13;;;;;;;2.63;2.27;;;1.60;89.00;;;;;;5027538;28;20178;-59
2023/03/11 04:14:39;;;;;;;2.60;2.40;;;1.60;86.30;;;;;;5029348;28;20813;-60
2023/03/11 04:17:05;;;;;;;4.23;1.97;;;1.50;86.10;;;;;;5026556;28;20525;-59
2023/03/11 04:19:31;;;;;;;2.60;1.90;;;1.50;86.80;;;;;;5026912;28;20183;-59
2023/03/11 04:21:57;;;;;;;2.50;2.17;;;1.50;88.20;;;;;;5026301;28;20203;-60
2023/03/11 04:24:22;;;;;;;3.70;2.03;;;1.50;89.20;;;;;;5026828;28;20519;-59
2023/03/11 04:26:48;;;;;;;4.13;2.70;;;1.50;90.00;;;;;;5030801;28;20643;-59
2023/03/11 04:29:13;;;;;;;3.60;2.17;;;1.50;89.30;;;;;;5028461;28;20208;-59
2023/03/11 04:31:39;;;;;;;2.63;2.00;;;1.40;86.30;;;;;;5027813;28;20196;-60
2023/03/11 04:34:05;;;;;;;2.47;2.00;;;1.40;86.80;;;;;;5032909;28;20304;-59
2023/03/11 04:36:30;;;;;;;2.57;2.37;;;1.40;87.10;;;;;;5023848;28;20178;-59
2023/03/11 04:38:56;;;;;;;3.57;2.17;;;1.30;86.00;;;;;;5023430;28;20223;-59
2023/03/11 04:41:22;;;;;;;3.57;2.07;;;1.20;85.40;;;;;;5021158;28;20652;-60
2023/03/11 04:43:48;;;;;;;2.20;2.00;;;1.20;85.30;;;;;;5029760;28;21014;-59
2023/03/11 04:46:13;;;;;;;2.10;1.87;;;1.10;85.00;;;;;;5030414;28;20423;-60
2023/03/11 04:48:39;;;;;;;2.50;1.80;;;1.10;85.00;;;;;;5027208;28;20188;-59
2023/03/11 04:51:05;;;;;;;3.43;2.13;;;1.00;83.40;;;;;;5022962;28;20211;-59
2023/03/11 04:53:30;;;;;;;2.10;1.90;;;1.00;83.30;;;;;;5023595;28;20168;-59
2023/03/11 04:55:56;;;;;;;2.20;2.00;;;0.90;84.10;;;;;;5024493;28;20168;-59
2023/03/11 04:58:21;;;;;;;2.03;1.93;;;0.90;86.00;;;;;;5026247;28;20669;-59
2023/03/11 05:00:47;;;;;;;3.73;2.33;;;0.90;87.20;;;;;;5025379;28;20172;-59
2023/03/11 05:03:13;;;;;;;2.40;2.03;;;0.90;88.50;;;;;;5031915;28;20489;-59
2023/03/11 05:05:38;;;;;;;2.30;1.77;;;0.90;89.40;;;;;;5025373;28;20721;-60
2023/03/11 05:08:04;;;;;;;2.17;2.07;;;0.90;90.20;;;;;;5017681;28;20234;-59
2023/03/11 05:10:29;;;;;;;2.27;2.10;;;0.80;89.80;;;;;;5023984;28;20178;-59
2023/03/11 05:12:55;;;;;;;5.57;2.00;;;0.80;90.20;;;;;;5028556;28;20248;-59
2023/03/11 05:15:21;;;;;;;3.70;2.33;;;0.70;90.30;;;;;;5025603;28;20212;-60
2023/03/11 05:17:46;;;;;;;2.00;1.90;;;0.70;90.40;;;;;;5025124;28;20190;-59
2023/03/11 05:20:12;;;;;;;4.97;2.00;;;0.70;90.10;;;;;;5027607;28;20689;-59
2023/03/11 05:22:38;;;;;;;3.23;1.60;;;0.70;90.20;;;;;;5022603;28;20652;-60
2023/03/11 05:25:05;;;;;;;3.23;1.73;;;0.70;90.10;;;;;;5022533;28;20466;-60
2023/03/11 05:27:30;;;;;;;2.60;1.73;;;0.70;89.60;;;;;;5028503;28;20230;-59
2023/03/11 05:29:56;;;;;;;2.70;1.80;;;0.70;88.00;;;;;;5034755;28;20862;-60
2023/03/11 05:32:22;;;;;;;1.70;1.60;;;0.70;86.50;;;;;;5022309;28;20176;-59
2023/03/11 05:34:48;;;;;;;3.30;1.83;;;0.70;83.60;;;;;;5027204;28;20185;-60
2023/03/11 05:37:15;;;;;;;2.63;2.43;;;0.70;82.50;;;;;;5018918;28;20498;-59
2023/03/11 05:39:41;;;;;;;2.70;1.80;;;0.70;83.10;;;;;;5020438;28;20444;-59
2023/03/11 05:42:08;;;;;;;1.83;1.73;;;0.70;81.60;;;;;;5021618;28;20564;-59
2023/03/11 05:44:33;;;;;;;6.70;1.60;;;0.70;79.10;;;;;;5034731;28;20266;-59
2023/03/11 05:46:59;;;;;;;2.13;1.63;;;0.70;79.20;;;;;;5025981;28;21308;-59
2023/03/11 05:49:25;;;;;;;4.00;1.70;;;0.70;80.10;;;;;;5024092;28;20207;-60
2023/03/11 05:51:53;;;;;;;2.03;1.70;;;0.70;80.10;;;;;;5023187;28;20438;-59
2023/03/11 05:54:19;;;;;;;2.40;1.50;;;0.70;80.50;;;;;;5028558;28;20432;-60
2023/03/11 05:56:46;;;;;;;2.20;1.60;;;0.70;79.50;;;;;;5021309;28;20437;-59
2023/03/11 05:59:13;;;;;;;2.20;2.00;;;0.70;78.30;;;;;;5026342;28;21444;-59
2023/03/11 06:01:39;;;;;;;4.20;1.70;;;0.70;75.80;;;;;;5027087;28;20439;-59
2023/03/11 06:04:05;;;;;;;2.43;1.57;;;0.70;76.40;;;;;;5025775;28;21002;-59
2023/03/11 06:06:31;;;;;;;6.80;2.03;;;0.70;78.00;;;;;;5023846;28;20424;-59
2023/03/11 06:08:57;;;;;;;3.63;1.53;;;0.70;77.60;;;;;;5023664;28;20198;-59
2023/03/11 06:11:26;;;;;;;2.27;1.70;;;0.70;78.10;;;;;;5025793;28;20425;-60
2023/03/11 06:13:55;;;;;;;1.80;1.70;;;0.70;76.30;;;;;;5028041;28;20772;-59
2023/03/11 06:16:22;;;;;;;2.30;2.10;;;0.70;78.80;;;;;;5028896;28;20440;-59
2023/03/11 06:18:47;;;;;;;2.43;2.00;;;0.80;76.70;;;;;;5024485;28;20508;-60
2023/03/11 06:21:18;;;;;;;2.63;2.03;;;0.80;75.50;;;;;;5026612;28;20865;-59
2023/03/11 06:23:45;;;;;;;3.10;1.80;;;0.80;77.00;;;;;;5027477;28;20210;-59
2023/03/11 06:26:16;;;;;;;2.17;2.07;;;0.80;75.30;;;;;;5019774;28;20981;-60
2023/03/11 06:28:44;;;;;;;2.97;1.67;;;0.80;74.00;;;;;;5031667;28;20480;-60
2023/03/11 06:31:13;;;;;;;1.87;1.50;;;0.80;74.80;;;;;;5023601;28;20433;-59
2023/03/11 06:33:39;;;;;;;3.23;2.03;;;0.70;74.30;;;;;;5023807;28;20444;-59
2023/03/11 06:36:05;;;;;;;2.93;1.77;;;0.80;74.40;;;;;;5027086;28;20438;-59
2023/03/11 06:38:32;;;;;;;3.03;1.90;;;0.70;74.10;;;;;;5024018;28;20226;-59
2023/03/11 06:40:59;;;;;;;1.97;1.80;;;0.80;74.60;;;;;;5010918;28;20811;-60
2023/03/11 06:43:25;;;;;;;5.13;2.63;;;0.70;73.90;;;;;;5024718;28;20520;-59
2023/03/11 06:45:50;;;;;;;4.67;2.90;;;0.80;73.80;;;;;;5024772;28;20430;-59
2023/03/11 06:48:16;;;;;;;5.90;2.67;;;0.70;73.20;;;;;;5022662;28;20198;-60
2023/03/11 06:50:41;;;;;;;3.23;2.00;;;0.80;73.60;;;;;;5026613;28;20588;-59
2023/03/11 06:53:07;;;;;;;2.97;2.27;;;0.80;73.70;;;;;;5021192;28;20183;-60
2023/03/11 06:55:34;;;;;;;3.07;1.80;;;0.80;74.50;;;;;;5019297;28;20178;-60
2023/03/11 06:57:59;;;;;;;4.93;2.70;;;0.80;74.90;;;;;;5026184;28;20224;-59
2023/03/11 07:00:25;;;;;;;1.80;1.70;;;0.90;74.20;;;;;;5023675;28;20440;-60
2023/03/11 07:02:50;;;;;;;3.50;2.00;;;0.90;73.50;;;;;;5023947;28;20183;-59
2023/03/11 07:05:16;;;;;;;3.63;2.00;;;1.00;75.90;;;;;;5021270;28;20265;-59
2023/03/11 07:07:42;;;;;;;2.00;1.90;;;1.10;78.80;;;;;;5023969;28;20213;-59
2023/03/11 07:10:09;;;;;;;5.80;2.60;;;1.20;76.80;;;;;;5022467;28;20422;-59
2023/03/11 07:12:34;;;;;;;6.50;1.90;;;1.20;73.90;;;;;;5022482;28;20179;-59
2023/03/11 07:15:00;;;;;;;5.10;1.97;;;1.30;74.80;;;;;;5032889;28;20466;-59
2023/03/11 07:17:27;;;;;;;3.93;2.17;;;1.30;76.90;;;;;;5027431;28;20181;-59
2023/03/11 07:19:52;;;;;;;2.93;2.00;;;1.30;76.10;;;;;;5021190;28;20193;-60
2023/03/11 07:22:18;;;;;;;2.13;2.00;;;1.30;75.90;;;;;;5023679;28;20938;-60
2023/03/11 07:24:50;;;;;;;8.43;2.47;;;1.30;74.50;;;;;;5027215;28;20265;-59
2023/03/11 07:27:15;;;;;;;2.53;1.90;;;1.30;75.00;;;;;;5030230;28;20174;-59
2023/03/11 07:29:41;;;;;;;2.40;1.90;;;1.20;75.90;;;;;;5031555;28;20448;-60
2023/03/11 07:32:07;;;;;;;2.03;1.90;;;1.30;74.70;;;;;;5026386;28;20606;-59
2023/03/11 07:34:33;;;;;;;2.30;2.20;;;1.20;74.50;;;;;;5028191;28;20187;-60
2023/03/11 07:36:58;;;;;;;2.60;2.20;;;1.30;75.50;;;;;;5023346;28;20421;-60
2023/03/11 07:39:24;;;;;;;3.13;2.23;;;1.40;74.20;;;;;;5025595;28;20225;-59
2023/03/11 07:41:49;;;;;;;3.70;2.50;;;1.50;72.60;;;;;;5026808;28;20236;-59
2023/03/11 07:44:16;;;;;;;4.87;2.10;;;1.60;72.40;;;;;;5029704;28;20786;-59
2023/03/11 07:46:42;;;;;;;2.47;2.27;;;1.60;70.30;;;;;;5021673;28;20253;-59
2023/03/11 07:49:07;;;;;;;4.57;2.70;;;1.70;69.60;;;;;;5030606;28;20533;-60
2023/03/11 07:51:35;;;;;;;3.33;2.37;;;1.80;71.00;;;;;;5030566;28;20519;-60
2023/03/11 07:54:02;;;;;;;2.47;2.13;;;1.80;69.00;;;;;;5027657;28;20273;-59
2023/03/11 07:56:31;;;;;;;2.90;1.80;;;1.70;67.50;;;;;;5022402;28;21123;-59
2023/03/11 07:58:58;;;;;;;5.47;2.50;;;1.70;68.60;;;;;;5030622;28;20450;-59
2023/03/11 08:01:29;;;;;;;8.30;2.27;;;1.70;70.10;;;;;;5021872;28;20431;-59
2023/03/11 08:03:56;;;;;;;8.27;2.30;;;1.70;69.80;;;;;;5015873;28;20549;-61
2023/03/11 08:06:30;;;;;;;2.30;2.10;;;1.70;69.80;;;;;;5017776;28;20453;-59
2023/03/11 08:08:56;;;;;;;5.20;2.40;;;1.80;70.80;;;;;;5019608;28;20443;-61
2023/03/11 08:11:22;;;;;;;4.60;2.30;;;1.90;71.60;;;;;;5022141;28;20528;-60
2023/03/11 08:13:49;;;;;;;4.10;1.93;;;2.00;68.80;;;;;;5027397;28;20462;-61
2023/03/11 08:16:17;;;;;;;4.57;2.13;;;2.00;69.50;;;;;;5026190;28;20450;-60
2023/03/11 08:18:43;;;;;;;1.83;1.73;;;2.00;66.90;;;;;;5025235;28;20449;-58
2023/03/11 08:21:16;;;;;;;3.73;2.23;;;2.00;65.30;;;;;;5018515;28;20434;-60
2023/03/11 08:23:42;;;;;;;3.70;1.97;;;2.10;65.00;;;;;;5011764;28;21053;-59
2023/03/11 08:26:11;;;;;;;2.50;1.77;;;2.10;63.60;;;;;;5022187;28;21288;-59
2023/03/11 08:28:37;;;;;;;2.90;2.10;;;2.20;64.20;;;;;;5022583;28;20461;-58
2023/03/11 08:31:10;;;;;;;2.30;2.10;;;2.20;63.60;;;;;;5022163;28;20465;-59
2023/03/11 08:33:36;;;;;;;3.40;2.37;;;2.20;63.30;;;;;;5025361;28;20422;-59
2023/03/11 08:36:02;;;;;;;2.50;1.73;;;2.20;62.00;;;;;;5018495;28;20503;-58
2023/03/11 08:38:27;;;;;;;5.20;1.93;;;2.20;61.30;;;;;;5014657;28;20199;-60
2023/03/11 08:40:53;;;;;;;3.00;1.93;;;2.30;61.10;;;;;;5005943;28;20799;-58
2023/03/11 08:43:19;;;;;;;1.67;1.57;;;2.30;58.70;;;;;;5019182;28;20289;-60
2023/03/11 08:45:44;;;;;;;1.70;1.40;;;2.40;57.50;;;;;;5008020;28;20172;-60
2023/03/11 08:48:11;;;;;;;5.53;1.77;;;2.40;56.80;;;;;;5028778;28;20214;-59
2023/03/11 08:50:41;;;;;;;6.13;2.10;;;2.40;55.60;;;;;;5024332;28;20682;-59
2023/03/11 08:53:07;;;;;;;4.47;1.53;;;2.40;55.10;;;;;;5012452;28;21055;-59
2023/03/11 08:55:33;;;;;;;1.80;1.70;;;2.40;55.50;;;;;;5019074;28;20431;-59
2023/03/11 08:57:58;;;;;;;2.57;2.13;;;2.50;55.60;;;;;;5019739;28;20458;-60
2023/03/11 09:00:24;;;;;;;2.00;1.80;;;2.70;55.70;;;;;;5026271;28;20182;-59
2023/03/11 09:02:50;;;;;;;3.00;2.23;;;2.70;54.20;;;;;;5026507;28;20210;-59
2023/03/11 09:05:15;;;;;;;3.33;1.87;;;2.70;54.70;;;;;;5022167;28;20856;-59
2023/03/11 09:07:41;;;;;;;3.70;2.10;;;2.70;53.70;;;;;;5023360;28;20963;-59
2023/03/11 09:10:07;;;;;;;3.30;1.40;;;2.80;53.60;;;;;;5020686;28;20176;-58
2023/03/11 09:12:33;;;;;;;1.40;1.30;;;2.90;53.10;;;;;;5027401;28;20574;-58
2023/03/11 09:14:58;;;;;;;2.93;1.50;;;2.90;52.00;;;;;;5022747;28;20438;-59
2023/03/11 09:17:24;;;;;;;1.77;1.50;;;3.10;52.00;;;;;;5029313;28;20195;-58
2023/03/11 09:19:50;;;;;;;2.67;1.57;;;3.20;51.60;;;;;;5014213;28;20204;-58
2023/03/11 09:22:16;;;;;;;3.00;1.70;;;3.40;51.10;;;;;;5017607;28;21053;-58
2023/03/11 09:24:41;;;;;;;1.40;1.30;;;3.40;49.60;;;;;;5023447;28;20254;-58
2023/03/11 09:27:07;;;;;;;4.70;1.70;;;3.40;50.20;;;;;;5022766;28;20180;-59
2023/03/11 09:29:33;;;;;;;2.27;1.80;;;3.50;50.00;;;;;;5025344;28;20207;-58
2023/03/11 09:31:58;;;;;;;6.27;1.80;;;3.60;50.20;;;;;;5024234;28;20172;-58
2023/03/11 09:34:24;;;;;;;1.40;1.30;;;3.70;49.70;;;;;;5022701;28;20188;-58
2023/03/11 09:36:49;;;;;;;6.63;1.30;;;3.80;48.90;;;;;;5023863;28;20820;-60
2023/03/11 09:39:15;;;;;;;5.10;1.40;;;3.90;49.10;;;;;;5011862;28;20208;-59
2023/03/11 09:42:03;;;;;;;3.87;1.80;;;3.90;47.70;;;;;;5006483;28;20924;-59
2023/03/11 09:44:43;;;;;;;3.20;1.63;;;3.90;47.40;;;;;;5011905;28;20203;-56
2023/03/11 09:47:47;;;;;;;3.57;1.90;;;4.00;47.00;;;;;;5007515;28;20449;-54
2023/03/11 09:50:31;;;;;;;3.00;2.20;;;4.00;46.80;;;;;;5014481;28;20530;-59
2023/03/11 09:53:14;;;;;;;2.77;1.70;;;4.00;46.70;;;;;;5013722;28;20940;-60
2023/03/11 09:55:42;;;;;;;4.77;1.90;;;4.10;47.60;;;;;;5010155;28;20422;-59
2023/03/11 09:58:31;;;;;;;4.70;1.97;;;4.10;45.60;;;;;;5014599;28;20457;-60
2023/03/11 10:00:57;;;;;;;2.80;2.00;;;4.00;45.40;;;;;;5008333;28;20435;-59
2023/03/11 10:03:31;;;;;;;3.20;1.80;;;4.00;46.80;;;;;;5013013;28;20605;-60
2023/03/11 10:06:06;;;;;;;2.60;1.77;;;4.20;47.10;;;;;;5009420;28;21082;-54
2023/03/11 10:08:44;;;;;;;4.40;1.93;;;4.30;46.70;;;;;;5008902;28;20450;-59
2023/03/11 10:11:45;;;;;;;3.50;1.80;;;4.40;45.60;;;;;;5011126;28;20438;-59
2023/03/11 10:14:30;;;;;;;3.37;2.00;;;4.50;44.10;;;;;;5012795;28;20437;-59
2023/03/11 10:17:33;;;;;;;4.53;1.70;;;4.40;43.80;;;;;;5006243;28;20948;-59
2023/03/11 10:20:14;;;;;;;5.50;1.63;;;4.50;43.80;;;;;;5007690;28;20441;-60
2023/03/11 10:22:54;;;;;;;2.10;1.70;;;4.50;43.90;;;;;;5012270;28;20431;-58
2023/03/11 10:25:39;;;;;;;4.53;1.50;;;4.50;44.10;;;;;;5019288;28;20462;-59
2023/03/11 10:28:15;;;;;;;2.40;1.90;;;4.60;45.50;;;;;;5017713;28;20487;-58
2023/03/11 10:30:52;;;;;;;3.53;1.60;;;4.80;46.20;;;;;;5012081;28;20477;-60
2023/03/11 10:33:36;;;;;;;2.00;1.90;;;4.90;45.40;;;;;;5014549;28;20534;-58
2023/03/11 10:36:28;;;;;;;3.80;1.80;;;5.00;44.10;;;;;;5014728;28;20435;-59
2023/03/11 10:38:55;;;;;;;2.30;1.70;;;5.00;42.90;;;;;;5025765;28;20669;-59
2023/03/11 10:41:43;;;;;;;5.13;1.80;;;4.90;43.70;;;;;;5013180;28;20430;-61
2023/03/11 10:44:17;;;;;;;1.70;1.60;;;5.00;44.50;;;;;;5014035;28;20465;-59
2023/03/11 10:46:42;;;;;;;3.83;1.80;;;5.30;45.00;;;;;;5015900;28;20458;-60
2023/03/11 10:49:14;;;;;;;1.80;1.50;;;5.40;45.30;;;;;;5014152;28;20954;-59
2023/03/11 10:51:43;;;;;;;2.13;1.50;;;5.60;45.50;;;;;;5018182;28;20179;-58
2023/03/11 10:54:25;;;;;;;2.00;1.90;;;5.70;45.00;;;;;;5018552;28;20430;-59
2023/03/11 10:56:55;;;;;;;11.53;1.80;;;5.80;42.40;;;;;;5016203;28;20517;-59
2023/03/11 10:59:23;;;;;;;3.80;1.60;;;5.90;43.20;;;;;;5021669;28;21033;-60
2023/03/11 11:01:59;;;;;;;1.87;1.70;;;6.00;43.00;;;;;;5020077;28;20455;-60
2023/03/11 11:04:34;;;;;;;1.60;1.50;;;6.10;41.90;;;;;;5034519;28;20466;-59
2023/03/11 11:07:31;;;;;;;2.17;1.77;;;6.10;40.90;;;;;;5024039;28;20448;-59
2023/03/11 11:10:14;;;;;;;5.80;2.63;;;6.30;42.50;;;;;;5019544;28;20435;-58
2023/03/11 11:12:56;;;;;;;1.90;1.77;;;6.50;43.00;;;;;;5022043;28;20419;-59
2023/03/11 11:15:30;;;;;;;2.47;2.27;;;6.60;40.70;;;;;;5020239;28;20545;-59
2023/03/11 11:18:02;;;;;;;2.67;1.53;;;6.70;40.10;;;;;;5022062;28;20523;-58
2023/03/11 11:20:29;;;;;;;1.43;1.33;;;6.70;40.70;;;;;;5020443;28;20478;-59
2023/03/11 11:22:58;;;;;;;2.70;1.60;;;6.90;42.10;;;;;;5021587;28;20434;-58
2023/03/11 11:25:32;;;;;;;1.63;1.53;;;7.00;41.70;;;;;;5018593;28;20546;-59
2023/03/11 11:28:13;;;;;;;3.80;1.80;;;7.20;40.40;;;;;;5022278;28;20485;-58
2023/03/11 11:30:52;;;;;;;2.30;1.60;;;7.40;40.80;;;;;;5020313;28;20441;-59
2023/03/11 11:33:37;;;;;;;3.03;1.77;;;7.70;40.20;;;;;;5022843;28;20458;-59
2023/03/11 11:36:05;;;;;;;1.70;1.60;;;7.90;38.70;;;;;;5019928;28;20509;-58
2023/03/11 11:38:31;;;;;;;4.73;2.40;;;8.30;38.00;;;;;;5019340;28;20482;-58
2023/03/11 11:41:01;;;;;;;2.00;1.60;;;8.80;37.80;;;;;;5020285;28;20407;-58
2023/03/11 11:43:42;;;;;;;4.23;1.60;;;9.20;37.50;;;;;;5017228;28;20459;-58
2023/03/11 11:46:31;;;;;;;3.53;1.60;;;9.80;37.20;;;;;;5022309;28;20464;-58
2023/03/11 11:49:19;;;;;;;2.23;1.83;;;10.20;34.60;;;;;;5018436;28;20975;-58
2023/03/11 11:51:55;;;;;;;1.73;1.50;;;10.70;34.50;;;;;;5017314;28;20434;-59
2023/03/11 11:54:35;;;;;;;1.93;1.60;;;11.00;34.50;;;;;;5015347;28;20525;-59
2023/03/11 11:57:10;;;;;;;2.60;1.20;;;11.20;32.60;;;;;;5019071;28;20937;-59
2023/03/11 11:59:36;;;;;;;3.57;1.80;;;11.30;33.10;;;;;;5019016;28;20456;-59
2023/03/11 12:02:32;;;;;;;2.03;1.53;;;11.40;33.30;;;;;;5020368;28;20529;-59
2023/03/11 12:05:12;;;;;;;5.00;1.73;;;11.50;33.50;;;;;;5022227;28;20716;-58
2023/03/11 12:08:03;;;;;;;2.80;1.60;;;11.30;30.90;;;;;;5027376;28;21012;-59
2023/03/11 12:10:52;;;;;;;2.60;1.73;;;11.20;31.40;;;;;;5020551;28;20438;-59
2023/03/11 12:13:36;;;;;;;1.60;1.50;;;11.00;30.80;;;;;;5030390;28;20435;-58
2023/03/11 12:16:31;;;;;;;2.07;1.63;;;10.60;31.70;;;;;;5027531;28;20434;-58
2023/03/11 12:19:09;;;;;;;1.50;1.40;;;10.60;31.80;;;;;;5031188;28;20447;-58
2023/03/11 12:21:56;;;;;;;2.63;1.63;;;10.60;31.30;;;;;;5023968;28;20423;-59
2023/03/11 12:24:30;;;;;;;1.70;1.37;;;10.60;30.70;;;;;;5020491;28;20540;-58
2023/03/11 12:27:04;;;;;;;1.93;1.73;;;10.50;30.80;;;;;;5027836;28;20422;-59
2023/03/11 12:29:43;;;;;;;6.03;1.60;;;10.30;30.60;;;;;;5026679;28;20539;-61
2023/03/11 12:32:30;;;;;;;2.40;1.60;;;9.90;32.20;;;;;;5017940;28;20520;-58
2023/03/11 12:35:21;;;;;;;4.20;1.70;;;9.50;32.20;;;;;;5018117;28;20513;-59
2023/03/11 12:37:56;;;;;;;2.30;1.60;;;9.50;33.90;;;;;;4996360;28;20450;-59
2023/03/11 12:40:43;;;;;;;1.83;1.70;;;9.10;33.80;;;;;;5020944;28;20828;-60
2023/03/11 12:43:28;;;;;;;2.67;1.60;;;8.60;34.10;;;;;;5012347;28;20440;-59
2023/03/11 12:45:58;;;;;;;4.20;1.90;;;8.30;33.00;;;;;;5018761;28;20821;-60
2023/03/11 12:48:26;;;;;;;2.43;1.80;;;8.10;32.90;;;;;;5017590;28;20859;-59
2023/03/11 12:50:53;;;;;;;2.27;1.97;;;7.80;33.10;;;;;;5020614;28;20539;-59
2023/03/11 12:53:19;;;;;;;2.50;1.67;;;7.70;33.30;;;;;;5016563;28;21025;-60
2023/03/11 12:56:07;;;;;;;1.70;1.60;;;7.70;33.60;;;;;;5017733;28;20432;-59
2023/03/11 12:58:58;;;;;;;3.77;1.80;;;8.10;34.10;;;;;;5020521;28;20612;-62
2023/03/11 13:01:48;;;;;;;5.37;1.50;;;8.70;34.20;;;;;;5017283;28;20418;-60
2023/03/11 13:04:34;;;;;;;3.40;2.10;;;9.30;33.00;;;;;;5019730;28;20479;-60
2023/03/11 13:07:20;;;;;;;3.67;1.80;;;9.80;33.20;;;;;;5017579;28;20434;-60
2023/03/11 13:10:19;;;;;;;2.03;1.83;;;10.30;33.80;;;;;;5017900;28;21297;-62